AFR58DQ LFBZ-LFPO
Flight info
| Callsign | AFR58DQ |
|---|---|
| Flight time | N/A |
| Altitude | 34000 |
| Route | VAVIX DCT TUDRA/N0414F280 DCT BEVOL UT158 AMB |
| Aircraft | A321/M-SDE2FGHIRWXY/LB1 |
Departure
| Time | 2026-05-07 19:22 |
|---|---|
| Airport | Biarritz Pays Basque airport (LFBZ) |
Arrival
| Time | N/A |
|---|---|
| Airport | Paris-Orly Airport (LFPO) |
| Time | Latitude | Longitude | Altitude | Speed | Heading |
|---|---|---|---|---|---|
| 2026-05-07 18:40 | 43.47068 | -1.53236 | 247 ft | 0 kts | 359° |
| 2026-05-07 19:18 | 43.47072 | -1.53233 | 247 ft | 2 kts | 21° |
| 2026-05-07 19:19 | 43.47053 | -1.53216 | 247 ft | 9 kts | 163° |
| 2026-05-07 19:19 | 43.46957 | -1.53197 | 247 ft | 16 kts | 155° |
| 2026-05-07 19:19 | 43.46859 | -1.53171 | 248 ft | 13 kts | 205° |
| 2026-05-07 19:19 | 43.46830 | -1.53267 | 249 ft | 10 kts | 268° |
| 2026-05-07 19:20 | 43.46824 | -1.53385 | 249 ft | 14 kts | 267° |
| 2026-05-07 19:20 | 43.46822 | -1.53510 | 249 ft | 12 kts | 269° |
| 2026-05-07 19:20 | 43.46830 | -1.53619 | 249 ft | 11 kts | 292° |
| 2026-05-07 19:20 | 43.46850 | -1.53704 | 248 ft | 8 kts | 243° |
| 2026-05-07 19:21 | 43.46829 | -1.53697 | 249 ft | 3 kts | 137° |
| 2026-05-07 19:21 | 43.46828 | -1.53673 | 249 ft | 2 kts | 90° |
| 2026-05-07 19:21 | 43.46828 | -1.53538 | 249 ft | 43 kts | 90° |
| 2026-05-07 19:21 | 43.46835 | -1.52790 | 249 ft | 109 kts | 88° |
| 2026-05-07 19:22 | 43.46845 | -1.51500 | 277 ft | 156 kts | 90° |
| 2026-05-07 19:22 | 43.46847 | -1.50044 | 972 ft | 149 kts | 90° |
| 2026-05-07 19:22 | 43.46860 | -1.48609 | 1565 ft | 154 kts | 91° |
| 2026-05-07 19:22 | 43.46877 | -1.47047 | 1840 ft | 174 kts | 91° |
| 2026-05-07 19:23 | 43.47157 | -1.45331 | 2030 ft | 199 kts | 58° |
| 2026-05-07 19:23 | 43.48345 | -1.44157 | 2189 ft | 230 kts | 20° |
| 2026-05-07 19:23 | 43.49946 | -1.43447 | 2478 ft | 254 kts | 21° |
| 2026-05-07 19:23 | 43.51574 | -1.42374 | 3003 ft | 264 kts | 33° |
| 2026-05-07 19:24 | 43.53118 | -1.40969 | 3741 ft | 268 kts | 38° |
| 2026-05-07 19:24 | 43.54635 | -1.39440 | 4457 ft | 272 kts | 39° |
| 2026-05-07 19:24 | 43.56165 | -1.37864 | 5168 ft | 276 kts | 38° |
| 2026-05-07 19:24 | 43.57720 | -1.36278 | 5871 ft | 280 kts | 38° |
| 2026-05-07 19:25 | 43.59310 | -1.34689 | 6569 ft | 284 kts | 37° |
| 2026-05-07 19:25 | 43.60928 | -1.33094 | 7246 ft | 287 kts | 36° |
| 2026-05-07 19:25 | 43.62564 | -1.31493 | 7939 ft | 290 kts | 36° |
| 2026-05-07 19:25 | 43.64221 | -1.29883 | 8631 ft | 292 kts | 36° |
| 2026-05-07 19:26 | 43.65896 | -1.28263 | 9308 ft | 295 kts | 35° |
| 2026-05-07 19:26 | 43.67586 | -1.26627 | 9970 ft | 299 kts | 35° |
| 2026-05-07 19:26 | 43.69348 | -1.24918 | 10260 ft | 316 kts | 35° |
| 2026-05-07 19:26 | 43.71204 | -1.23111 | 10394 ft | 336 kts | 35° |
| 2026-05-07 19:27 | 43.73163 | -1.21209 | 10637 ft | 351 kts | 35° |
| 2026-05-07 19:27 | 43.75180 | -1.19254 | 11159 ft | 356 kts | 35° |
| 2026-05-07 19:27 | 43.77227 | -1.17300 | 11723 ft | 360 kts | 34° |
| 2026-05-07 19:27 | 43.79308 | -1.15346 | 12305 ft | 363 kts | 34° |
| 2026-05-07 19:28 | 43.81410 | -1.13386 | 12894 ft | 366 kts | 33° |
| 2026-05-07 19:28 | 43.83537 | -1.11401 | 13475 ft | 370 kts | 33° |
| 2026-05-07 19:28 | 43.85677 | -1.09396 | 14023 ft | 373 kts | 33° |
| 2026-05-07 19:28 | 43.87832 | -1.07372 | 14547 ft | 376 kts | 33° |
| 2026-05-07 19:29 | 43.90006 | -1.05329 | 15078 ft | 378 kts | 33° |
| 2026-05-07 19:29 | 43.92189 | -1.03276 | 15590 ft | 381 kts | 33° |
| 2026-05-07 19:29 | 43.94389 | -1.01201 | 16101 ft | 383 kts | 33° |
| 2026-05-07 19:29 | 43.96603 | -0.99106 | 16608 ft | 386 kts | 33° |
| 2026-05-07 19:30 | 43.98823 | -0.97002 | 17091 ft | 388 kts | 33° |
| 2026-05-07 19:30 | 44.01061 | -0.94879 | 17606 ft | 391 kts | 34° |
| 2026-05-07 19:30 | 44.03315 | -0.92743 | 18083 ft | 394 kts | 34° |
| 2026-05-07 19:30 | 44.05583 | -0.90592 | 18505 ft | 396 kts | 34° |
| 2026-05-07 19:31 | 44.07865 | -0.88423 | 18881 ft | 399 kts | 34° |
| 2026-05-07 19:31 | 44.10170 | -0.86230 | 19263 ft | 402 kts | 34° |
| 2026-05-07 19:31 | 44.12487 | -0.84026 | 19620 ft | 405 kts | 34° |
| 2026-05-07 19:31 | 44.14818 | -0.81810 | 19965 ft | 408 kts | 34° |
| 2026-05-07 19:32 | 44.17170 | -0.79570 | 20311 ft | 410 kts | 34° |
| 2026-05-07 19:32 | 44.19531 | -0.77310 | 20661 ft | 413 kts | 34° |
| 2026-05-07 19:32 | 44.21903 | -0.75036 | 21007 ft | 416 kts | 34° |
| 2026-05-07 19:32 | 44.24302 | -0.72738 | 21336 ft | 419 kts | 34° |
| 2026-05-07 19:33 | 44.26708 | -0.70438 | 21680 ft | 421 kts | 33° |
| 2026-05-07 19:33 | 44.29279 | -0.68454 | 22012 ft | 423 kts | 23° |
| 2026-05-07 19:33 | 44.31976 | -0.66781 | 22350 ft | 426 kts | 23° |
| 2026-05-07 19:33 | 44.34688 | -0.65098 | 22701 ft | 428 kts | 23° |
| 2026-05-07 19:34 | 44.37421 | -0.63393 | 23045 ft | 431 kts | 23° |
| 2026-05-07 19:34 | 44.40208 | -0.61653 | 23397 ft | 434 kts | 23° |
| 2026-05-07 19:34 | 44.42974 | -0.59920 | 23710 ft | 437 kts | 23° |
| 2026-05-07 19:34 | 44.45750 | -0.58174 | 24012 ft | 439 kts | 23° |
| 2026-05-07 19:35 | 44.48540 | -0.56413 | 24319 ft | 441 kts | 23° |
| 2026-05-07 19:35 | 44.51344 | -0.54639 | 24622 ft | 443 kts | 23° |
| 2026-05-07 19:35 | 44.54155 | -0.52859 | 24937 ft | 445 kts | 23° |
| 2026-05-07 19:35 | 44.56978 | -0.51076 | 25242 ft | 447 kts | 22° |
| 2026-05-07 19:36 | 44.59826 | -0.49282 | 25540 ft | 449 kts | 22° |
| 2026-05-07 19:36 | 44.62676 | -0.47485 | 25841 ft | 450 kts | 22° |
| 2026-05-07 19:36 | 44.65541 | -0.45672 | 26137 ft | 452 kts | 22° |
| 2026-05-07 19:36 | 44.68413 | -0.43849 | 26426 ft | 454 kts | 22° |
| 2026-05-07 19:37 | 44.71299 | -0.42015 | 26704 ft | 456 kts | 22° |
| 2026-05-07 19:37 | 44.74199 | -0.40176 | 27011 ft | 458 kts | 22° |
| 2026-05-07 19:37 | 44.77106 | -0.38331 | 27303 ft | 460 kts | 22° |
| 2026-05-07 19:37 | 44.80025 | -0.36476 | 27578 ft | 462 kts | 22° |
| 2026-05-07 19:38 | 44.81964 | -0.35241 | 27766 ft | 463 kts | 22° |
| 2026-05-07 19:38 | 44.84904 | -0.33367 | 28054 ft | 465 kts | 22° |
| 2026-05-07 19:38 | 44.87856 | -0.31485 | 28333 ft | 466 kts | 22° |
| 2026-05-07 19:38 | 44.90818 | -0.29597 | 28596 ft | 468 kts | 22° |
| 2026-05-07 19:39 | 44.93797 | -0.27693 | 28847 ft | 470 kts | 23° |
| 2026-05-07 19:39 | 44.96778 | -0.25782 | 29102 ft | 472 kts | 23° |
| 2026-05-07 19:39 | 44.99775 | -0.23857 | 29334 ft | 474 kts | 23° |
| 2026-05-07 19:39 | 45.02775 | -0.21928 | 29559 ft | 475 kts | 22° |
| 2026-05-07 19:40 | 45.05837 | -0.19959 | 29768 ft | 477 kts | 22° |
| 2026-05-07 19:40 | 45.08855 | -0.18014 | 29974 ft | 478 kts | 22° |
| 2026-05-07 19:40 | 45.11894 | -0.16056 | 30158 ft | 479 kts | 22° |
| 2026-05-07 19:40 | 45.14912 | -0.14112 | 30410 ft | 479 kts | 22° |
| 2026-05-07 19:41 | 45.17955 | -0.12150 | 30665 ft | 478 kts | 22° |
| 2026-05-07 19:41 | 45.20977 | -0.10198 | 30915 ft | 478 kts | 23° |
| 2026-05-07 19:41 | 45.23999 | -0.08240 | 31159 ft | 477 kts | 23° |
| 2026-05-07 19:41 | 45.27018 | -0.06283 | 31416 ft | 477 kts | 23° |
| 2026-05-07 19:42 | 45.30032 | -0.04326 | 31653 ft | 476 kts | 23° |
| 2026-05-07 19:42 | 45.33042 | -0.02367 | 31903 ft | 476 kts | 23° |
| 2026-05-07 19:42 | 45.36051 | -0.00407 | 32148 ft | 475 kts | 23° |
| 2026-05-07 19:42 | 45.39058 | 0.01549 | 32388 ft | 475 kts | 23° |
| 2026-05-07 19:43 | 45.42067 | 0.03505 | 32635 ft | 475 kts | 23° |
| 2026-05-07 19:43 | 45.45056 | 0.05451 | 32870 ft | 474 kts | 24° |
| 2026-05-07 19:43 | 45.48063 | 0.07414 | 33121 ft | 474 kts | 24° |
| 2026-05-07 19:43 | 45.51061 | 0.09377 | 33360 ft | 474 kts | 24° |
| 2026-05-07 19:44 | 45.54047 | 0.11334 | 33594 ft | 473 kts | 24° |
| 2026-05-07 19:44 | 45.57042 | 0.13295 | 33818 ft | 473 kts | 24° |
| 2026-05-07 19:44 | 45.60035 | 0.15257 | 33968 ft | 472 kts | 24° |
| 2026-05-07 19:44 | 45.63009 | 0.17208 | 33978 ft | 468 kts | 24° |
| 2026-05-07 19:45 | 45.68902 | 0.21084 | 33974 ft | 466 kts | 24° |
| 2026-05-07 19:45 | 45.74775 | 0.24974 | 33971 ft | 466 kts | 24° |
| 2026-05-07 19:46 | 45.80666 | 0.28882 | 33980 ft | 466 kts | 24° |
| 2026-05-07 19:46 | 45.86553 | 0.32771 | 33982 ft | 466 kts | 24° |
| 2026-05-07 19:47 | 45.92492 | 0.36707 | 33981 ft | 467 kts | 24° |
| 2026-05-07 19:47 | 45.98346 | 0.40607 | 33985 ft | 467 kts | 24° |
| 2026-05-07 19:48 | 46.04274 | 0.44571 | 33989 ft | 467 kts | 24° |
| 2026-05-07 19:48 | 46.10117 | 0.48496 | 33996 ft | 467 kts | 24° |